Messwerte Matam

Temperatur

Temperatur
°C
1614560400 1.00 1.00
1614564000 2.00 2.00
1614567600 3.00 3.00 22
1614571200 4.00 4.00
1614574800 5.00 5.00
1614578400 6.00 6.00 20
1614582000 7.00 7.00 20
1614585600 8.00 8.00 20
1614589200 9.00 9.00 22
1614592800 10.00 10.00 27
1614596400 11.00 11.00 31
1614600000 12.00 12.00 34
1614603600 13.00 13.00
1614607200 14.00 14.00
1614610800 15.00 15.00 38
1614614400 16.00 16.00 38
1614618000 17.00 17.00 37
1614621600 18.00 18.00 36
1614625200 19.00 19.00 33
1614628800 20.00 20.00
1614632400 21.00 21.00 27
1614636000 22.00 22.00 27
1614639600 23.00 23.00 26
1614643200 0.00 0.00 26

Aktuellste Messwerte

Wettercharakter
Wetter: meist klar
Temperatur
26 °C
Feuchtigkeit
30 %
Wind
5 km/hWindrichtung: Nordost
Luftdruck
1011 hPa
Messzeit: 2. März 2021, 0.00Datenquelle: METAR

Weitere Messstationen in der Nähe

Messstation Temperatur Entfernung
Linguere 26 °C 202 km
Tambacounda 29 °C 214 km
Podor 24 °C 215 km
Saint-Louis 20 °C 338 km
Diourbel 24 °C 338 km
Kaolack 26 °C 347 km
Kolda 28 °C 359 km

Wind

Windrichtung Böen Mittelwind
° km/h km/h
1614560400 1.00 0.00 - 1.00
1614564000 2.00 1.00 - 2.00
1614567600 3.00 2.00 - 3.00 360° 5
1614571200 4.00 3.00 - 4.00
1614574800 5.00 4.00 - 5.00
1614578400 6.00 5.00 - 6.00 360° 5
1614582000 7.00 6.00 - 7.00 360° 5
1614585600 8.00 7.00 - 8.00 360° 5
1614589200 9.00 8.00 - 9.00 360° 5
1614592800 10.00 9.00 - 10.00 40° 5
1614596400 11.00 10.00 - 11.00 40° 5
1614600000 12.00 11.00 - 12.00 40° 5
1614603600 13.00 12.00 - 13.00
1614607200 14.00 13.00 - 14.00
1614610800 15.00 14.00 - 15.00 40° 5
1614614400 16.00 15.00 - 16.00 360° 5
1614618000 17.00 16.00 - 17.00 360° 10
1614621600 18.00 17.00 - 18.00 40° 5
1614625200 19.00 18.00 - 19.00 20° 5
1614628800 20.00 19.00 - 20.00
1614632400 21.00 20.00 - 21.00 0
1614636000 22.00 21.00 - 22.00 40° 5
1614639600 23.00 22.00 - 23.00 20° 5
1614643200 0.00 23.00 - 0.00 40° 5

Ihre Wetterstation

Fehlt Ihre Wetterstation auf unserem Portal?

Schreiben Sie an network@meteonews.ch

Klima

Wann ist es am wärmsten? Wann regnet es am wenigsten? Unsere Klimadaten geben Auskunft.